Time;durP1;ratioP1;P1;durP2;ratioP2;P2;SDS_P1;SDS_P2;PMS_P1;PMS_P2;Temp;Humidity;BMP_temperature;BMP_pressure;BME280_temperature;BME280_humidity;BME280_pressure;Samples;Min_cycle;Max_cycle;Signal;HPM_P1;HPM_P2
2022/08/30 00:01:31;;;;;;;3.95;1.10;;;17.30;99.90;;;;;;4864097;29;20113;-83
2022/08/30 00:03:57;;;;;;;;;;;17.30;99.90;;;;;;4881100;29;20430;-84
2022/08/30 00:06:25;;;;;;;3.97;1.40;;;17.30;99.90;;;;;;4863890;29;19930;-83
2022/08/30 00:08:51;;;;;;;4.65;1.20;;;17.30;99.90;;;;;;4880664;29;20136;-83
2022/08/30 00:11:25;;;;;;;5.35;1.33;;;17.30;99.90;;;;;;4863889;29;20140;-83
2022/08/30 00:13:53;;;;;;;5.35;1.48;;;17.30;99.90;;;;;;4863625;29;20370;-83
2022/08/30 00:16:21;;;;;;;5.30;1.30;;;17.30;99.90;;;;;;4864107;29;20112;-83
2022/08/30 00:18:47;;;;;;;3.13;1.17;;;17.30;99.90;;;;;;4880485;29;20053;-83
2022/08/30 00:21:14;;;;;;;6.35;2.15;;;17.30;99.90;;;;;;4863623;29;20056;-83
2022/08/30 00:23:40;;;;;;;5.18;1.30;;;17.30;99.90;;;;;;4880441;29;20041;-83
2022/08/30 00:26:06;;;;;;;5.57;1.20;;;17.20;99.90;;;;;;4863573;29;20132;-83
2022/08/30 00:28:33;;;;;;;3.58;1.20;;;17.30;99.90;;;;;;4863679;29;20045;-83
2022/08/30 00:31:00;;;;;;;4.03;1.13;;;17.20;99.90;;;;;;4863811;29;20048;-83
2022/08/30 00:33:27;;;;;;;3.25;1.30;;;17.30;99.90;;;;;;4863544;29;20087;-84
2022/08/30 00:35:53;;;;;;;4.03;1.08;;;17.20;99.90;;;;;;4863704;29;20400;-84
2022/08/30 00:38:18;;;;;;;7.25;1.70;;;17.20;99.90;;;;;;4863704;29;20045;-83
2022/08/30 00:40:45;;;;;;;5.35;1.55;;;17.20;99.90;;;;;;4863248;29;20536;-83
2022/08/30 00:43:23;;;;;;;2.40;1.05;;;17.30;99.90;;;;;;4863489;29;20104;-83
2022/08/30 00:45:50;;;;;;;3.50;1.00;;;17.30;99.90;;;;;;4863271;29;20044;-83
2022/08/30 00:48:15;;;;;;;5.28;1.30;;;17.30;99.90;;;;;;4863578;29;20049;-83
2022/08/30 00:50:45;;;;;;;5.90;1.20;;;17.30;99.90;;;;;;4863280;29;20393;-83
2022/08/30 00:53:19;;;;;;;4.45;1.40;;;17.30;99.90;;;;;;4863223;29;20140;-84
2022/08/30 00:55:45;;;;;;;3.72;1.30;;;17.20;99.90;;;;;;4880078;29;20057;-84
2022/08/30 00:58:20;;;;;;;3.70;1.30;;;17.20;99.90;;;;;;4863284;29;20052;-83
2022/08/30 01:00:52;;;;;;;5.97;1.30;;;17.20;99.90;;;;;;4863220;29;20105;-83
2022/08/30 01:03:18;;;;;;;2.17;1.00;;;17.20;99.90;;;;;;4863570;29;20088;-83
2022/08/30 01:05:44;;;;;;;4.10;1.27;;;17.20;99.90;;;;;;4879951;29;20083;-83
2022/08/30 01:08:10;;;;;;;7.43;1.50;;;17.10;99.90;;;;;;4879921;29;20072;-83
2022/08/30 01:10:37;;;;;;;5.82;1.15;;;17.10;99.90;;;;;;4863326;29;20456;-83
2022/08/30 01:13:03;;;;;;;4.10;1.25;;;17.20;99.90;;;;;;4863053;29;20508;-84
2022/08/30 01:15:31;;;;;;;3.88;1.48;;;17.20;99.90;;;;;;4862773;29;20061;-84
2022/08/30 01:17:57;;;;;;;5.88;1.50;;;17.10;99.90;;;;;;4863076;29;20401;-85
2022/08/30 01:20:29;;;;;;;3.55;1.17;;;17.10;99.90;;;;;;4863255;29;20103;-84
2022/08/30 01:23:07;;;;;;;6.20;1.33;;;17.00;99.90;;;;;;4879774;29;20052;-84
2022/08/30 01:25:36;;;;;;;5.65;1.20;;;17.00;99.90;;;;;;4879968;29;20392;-84
2022/08/30 01:28:07;;;;;;;3.40;1.00;;;17.00;99.90;;;;;;4879767;29;20116;-85
2022/08/30 01:30:37;;;;;;;3.25;1.17;;;16.90;99.90;;;;;;4879617;29;20052;-83
2022/08/30 01:33:05;;;;;;;2.53;0.90;;;16.90;99.90;;;;;;4879616;29;20108;-83
2022/08/30 01:36:04;;;;;;;5.15;1.30;;;16.90;99.90;;;;;;4863101;29;20052;-83
2022/08/30 01:38:41;;;;;;;7.97;1.55;;;16.80;99.90;;;;;;4879527;29;20438;-84
2022/08/30 01:41:16;;;;;;;4.43;1.20;;;16.80;99.90;;;;;;4879635;29;20081;-84
2022/08/30 01:43:43;;;;;;;5.93;1.20;;;16.80;99.90;;;;;;4879644;29;20102;-83
2022/08/30 01:46:10;;;;;;;4.63;1.20;;;16.70;99.90;;;;;;4879574;29;20049;-83
2022/08/30 01:48:39;;;;;;;4.68;1.30;;;16.70;99.90;;;;;;4879567;29;20080;-83
2022/08/30 01:51:08;;;;;;;4.32;1.20;;;16.70;99.90;;;;;;4879392;29;20124;-83
2022/08/30 01:53:33;;;;;;;6.43;1.20;;;16.70;99.90;;;;;;4865204;29;20461;-83
2022/08/30 01:55:59;;;;;;;4.22;1.20;;;16.70;99.90;;;;;;4866590;29;20132;-83
2022/08/30 01:58:25;;;;;;;1.95;1.08;;;16.60;99.90;;;;;;4866306;29;20049;-84
2022/08/30 02:00:50;;;;;;;2.85;1.30;;;16.60;99.90;;;;;;4882628;29;20041;-83
2022/08/30 02:03:16;;;;;;;4.68;1.40;;;16.60;99.90;;;;;;4882915;29;20041;-83
2022/08/30 02:05:42;;;;;;;4.68;1.10;;;16.50;99.90;;;;;;4882669;29;20049;-83
2022/08/30 02:08:08;;;;;;;5.30;1.33;;;16.50;99.90;;;;;;4866247;29;20067;-83
2022/08/30 02:10:33;;;;;;;1.75;1.13;;;16.50;99.90;;;;;;4866147;29;20045;-84
2022/08/30 02:12:59;;;;;;;4.93;1.40;;;16.40;99.90;;;;;;4866151;29;20105;-83
2022/08/30 02:15:25;;;;;;;4.13;1.38;;;16.40;99.90;;;;;;4882339;29;20057;-83
2022/08/30 02:17:51;;;;;;;3.70;1.50;;;16.40;99.90;;;;;;4882651;29;20092;-83
2022/08/30 02:20:17;;;;;;;3.58;1.30;;;16.40;99.90;;;;;;4865847;29;20052;-83
2022/08/30 02:22:43;;;;;;;3.40;1.30;;;16.40;99.90;;;;;;4865772;29;20135;-83
2022/08/30 02:25:09;;;;;;;3.50;1.67;;;16.40;99.90;;;;;;4882613;29;20053;-83
2022/08/30 02:27:35;;;;;;;4.57;1.80;;;16.40;99.90;;;;;;4865938;29;20127;-83
2022/08/30 02:30:01;;;;;;;4.47;1.75;;;16.30;99.90;;;;;;4865794;29;20061;-84
2022/08/30 02:32:26;;;;;;;4.43;1.67;;;16.30;99.90;;;;;;4865745;29;20045;-84
2022/08/30 02:34:53;;;;;;;4.47;1.38;;;16.30;99.90;;;;;;4882274;29;20080;-83
2022/08/30 02:37:19;;;;;;;3.92;1.38;;;16.30;99.90;;;;;;4882279;29;20079;-84
2022/08/30 02:39:44;;;;;;;3.38;1.25;;;16.20;99.90;;;;;;4865772;29;20098;-84
2022/08/30 02:42:10;;;;;;;4.50;1.55;;;16.30;99.90;;;;;;4865532;29;20049;-83
2022/08/30 02:44:36;;;;;;;3.42;1.40;;;16.20;99.90;;;;;;4882423;29;20049;-83
2022/08/30 02:47:02;;;;;;;5.18;1.70;;;16.20;99.90;;;;;;4865555;29;20049;-83
2022/08/30 02:49:28;;;;;;;2.90;1.33;;;16.20;99.90;;;;;;4882010;29;20393;-84
2022/08/30 02:51:53;;;;;;;3.85;1.50;;;16.10;99.90;;;;;;4865279;29;20120;-83
2022/08/30 02:54:19;;;;;;;4.20;1.40;;;16.10;99.90;;;;;;4865228;29;20085;-83
2022/08/30 02:56:48;;;;;;;4.22;1.23;;;16.10;99.90;;;;;;4881949;29;20047;-83
2022/08/30 02:59:16;;;;;;;5.75;1.42;;;16.10;99.90;;;;;;4881953;29;20055;-83
2022/08/30 03:01:41;;;;;;;3.20;1.10;;;16.00;99.90;;;;;;4865330;29;20126;-83
2022/08/30 03:04:08;;;;;;;4.47;1.38;;;16.00;99.90;;;;;;4864938;29;20486;-83
2022/08/30 03:06:34;;;;;;;3.17;1.35;;;16.00;99.90;;;;;;4865321;29;20071;-83
2022/08/30 03:08:59;;;;;;;2.58;1.38;;;15.90;99.90;;;;;;4865245;29;20385;-84
2022/08/30 03:11:26;;;;;;;2.88;1.33;;;15.90;99.90;;;;;;4864971;29;20392;-83
2022/08/30 03:13:51;;;;;;;4.90;1.60;;;15.90;99.90;;;;;;4864641;29;20051;-83
2022/08/30 03:16:17;;;;;;;3.60;1.42;;;15.80;99.90;;;;;;4864768;29;20057;-83
2022/08/30 03:18:43;;;;;;;2.97;1.40;;;15.70;99.90;;;;;;4864976;29;20056;-83
2022/08/30 03:21:14;;;;;;;2.33;1.40;;;15.70;99.90;;;;;;4881266;29;20053;-84
2022/08/30 03:23:41;;;;;;;5.78;1.55;;;15.70;99.90;;;;;;4881234;29;20056;-83
2022/08/30 03:26:10;;;;;;;2.72;1.48;;;15.60;99.90;;;;;;4881456;29;20101;-83
2022/08/30 03:28:36;;;;;;;4.95;2.85;;;15.60;99.90;;;;;;4864836;29;20048;-84
2022/08/30 03:31:02;;;;;;;5.57;1.60;;;15.60;99.90;;;;;;4864481;29;20057;-83
2022/08/30 03:33:27;;;;;;;5.82;1.92;;;15.60;99.90;;;;;;4881283;29;20056;-83
2022/08/30 03:35:53;;;;;;;6.13;1.50;;;15.60;99.90;;;;;;4864603;29;20053;-83
2022/08/30 03:38:19;;;;;;;3.80;1.80;;;15.50;99.90;;;;;;4881212;29;20045;-84
2022/08/30 03:40:44;;;;;;;3.78;1.60;;;15.50;99.90;;;;;;4880925;29;20096;-84
2022/08/30 03:43:10;;;;;;;3.75;2.10;;;15.50;99.90;;;;;;4881156;29;20097;-84
2022/08/30 03:45:36;;;;;;;3.40;1.60;;;15.50;99.90;;;;;;4864540;29;20058;-83
2022/08/30 03:48:02;;;;;;;6.65;1.90;;;15.50;99.90;;;;;;4864313;29;20057;-83
2022/08/30 03:50:29;;;;;;;3.97;2.03;;;15.40;99.90;;;;;;4864265;29;20057;-83
2022/08/30 03:52:55;;;;;;;3.72;1.88;;;15.40;99.90;;;;;;4863852;29;20504;-83
2022/08/30 03:55:21;;;;;;;5.25;2.05;;;15.40;99.90;;;;;;4880940;29;20049;-84
2022/08/30 03:57:46;;;;;;;6.22;1.90;;;15.30;99.90;;;;;;4880907;29;20382;-83
2022/08/30 04:00:15;;;;;;;5.20;2.00;;;15.30;99.90;;;;;;4864140;29;20045;-83
2022/08/30 04:02:40;;;;;;;4.43;2.10;;;15.20;99.90;;;;;;4880574;29;20084;-83
2022/08/30 04:05:10;;;;;;;5.18;2.40;;;15.10;99.90;;;;;;4880770;29;20081;-84
2022/08/30 04:07:36;;;;;;;6.53;2.60;;;15.10;99.90;;;;;;4880954;29;20092;-84
2022/08/30 04:10:04;;;;;;;5.15;2.38;;;15.10;99.90;;;;;;4863725;29;20049;-83
2022/08/30 04:12:29;;;;;;;5.13;2.45;;;15.00;99.90;;;;;;4864014;29;20052;-83
2022/08/30 04:14:55;;;;;;;5.15;2.25;;;14.90;99.90;;;;;;4863043;29;20053;-83
2022/08/30 04:17:21;;;;;;;9.30;2.67;;;14.90;99.90;;;;;;4880625;29;20093;-83
2022/08/30 04:19:47;;;;;;;4.97;2.70;;;14.80;99.90;;;;;;4880479;29;20465;-83
2022/08/30 04:22:12;;;;;;;5.18;2.45;;;14.70;99.90;;;;;;4880465;29;20045;-83
2022/08/30 04:24:40;;;;;;;4.30;2.42;;;14.80;99.90;;;;;;4880492;29;20037;-83
2022/08/30 04:27:06;;;;;;;4.18;2.28;;;14.70;99.90;;;;;;4880207;29;20084;-83
2022/08/30 04:29:32;;;;;;;6.00;2.45;;;14.70;99.90;;;;;;4880173;29;20473;-83
2022/08/30 04:31:58;;;;;;;5.75;2.78;;;14.60;99.90;;;;;;4863473;29;20041;-83
2022/08/30 04:34:24;;;;;;;5.15;2.67;;;14.60;99.90;;;;;;4863478;29;20049;-83
2022/08/30 04:36:49;;;;;;;5.55;3.10;;;14.60;99.90;;;;;;4879878;29;20045;-83
2022/08/30 04:39:16;;;;;;;6.68;3.03;;;14.60;99.90;;;;;;4862788;29;20045;-83
2022/08/30 04:41:42;;;;;;;8.05;3.58;;;14.60;99.90;;;;;;4862095;29;20049;-83
2022/08/30 04:44:08;;;;;;;8.23;3.22;;;14.60;99.90;;;;;;4863115;29;20052;-83
2022/08/30 04:46:35;;;;;;;7.53;3.25;;;14.60;99.90;;;;;;4863249;29;20049;-82
2022/08/30 04:49:01;;;;;;;9.18;3.65;;;14.60;99.90;;;;;;4863150;29;20060;-82
2022/08/30 04:51:27;;;;;;;7.80;3.30;;;14.60;99.90;;;;;;4863165;29;20132;-83
2022/08/30 04:53:52;;;;;;;7.60;3.20;;;14.70;99.90;;;;;;4879711;29;20195;-84
2022/08/30 04:56:23;;;;;;;7.10;3.90;;;14.60;99.90;;;;;;4863087;29;20049;-83
2022/08/30 04:58:52;;;;;;;4.63;2.90;;;14.60;99.90;;;;;;4879974;29;20105;-82
2022/08/30 05:01:23;;;;;;;6.97;2.97;;;14.70;99.90;;;;;;4863236;29;20462;-83
2022/08/30 05:03:51;;;;;;;6.43;3.30;;;14.70;99.90;;;;;;4862928;29;20409;-83
2022/08/30 05:06:17;;;;;;;4.53;2.80;;;14.70;99.90;;;;;;4862858;29;20481;-83
2022/08/30 05:08:44;;;;;;;5.22;3.20;;;14.70;99.90;;;;;;4862991;29;20516;-82
2022/08/30 05:11:10;;;;;;;7.50;2.70;;;14.70;99.90;;;;;;4863147;29;20051;-82
2022/08/30 05:13:36;;;;;;;7.47;2.60;;;14.70;99.90;;;;;;4862879;29;20081;-83
2022/08/30 05:16:04;;;;;;;8.80;2.70;;;14.70;99.90;;;;;;4862743;29;20053;-82
2022/08/30 05:18:31;;;;;;;6.43;3.30;;;14.70;99.90;;;;;;4879683;29;20057;-83
2022/08/30 05:21:19;;;;;;;6.07;2.90;;;14.70;99.90;;;;;;4879756;29;20041;-83
2022/08/30 05:23:45;;;;;;;4.78;2.47;;;14.80;99.90;;;;;;4877072;24;20053;-83
2022/08/30 05:26:12;;;;;;;6.45;2.75;;;14.70;99.90;;;;;;4844771;29;20042;-83
2022/08/30 05:28:39;;;;;;;4.35;2.50;;;14.80;99.90;;;;;;4846931;29;20089;-83
2022/08/30 05:31:12;;;;;;;6.47;2.92;;;14.80;99.90;;;;;;4864686;29;20049;-83
2022/08/30 05:33:38;;;;;;;10.13;3.00;;;14.80;99.90;;;;;;4847931;29;20050;-84
2022/08/30 05:36:07;;;;;;;7.75;2.50;;;14.80;99.90;;;;;;4848051;29;20093;-84
2022/08/30 05:38:32;;;;;;;4.93;2.40;;;14.90;99.90;;;;;;4864555;29;20049;-83
2022/08/30 05:40:58;;;;;;;8.35;3.15;;;14.90;99.90;;;;;;4864627;29;20093;-84
2022/08/30 05:43:24;;;;;;;6.10;2.47;;;14.90;99.90;;;;;;4848112;29;20425;-83
2022/08/30 05:46:01;;;;;;;4.32;2.47;;;15.00;99.90;;;;;;4848101;29;20505;-83
2022/08/30 05:48:27;;;;;;;4.55;2.72;;;15.00;99.90;;;;;;4848016;29;20442;-83
2022/08/30 05:51:15;;;;;;;4.95;2.45;;;15.10;99.90;;;;;;4847666;29;20053;-84
2022/08/30 05:53:41;;;;;;;6.38;3.08;;;15.20;99.90;;;;;;4847765;29;20489;-84
2022/08/30 05:56:10;;;;;;;6.68;2.80;;;15.30;99.90;;;;;;4847735;29;20447;-83
2022/08/30 05:58:37;;;;;;;6.30;2.50;;;15.40;99.90;;;;;;4847764;29;20072;-83
2022/08/30 06:01:03;;;;;;;4.38;2.63;;;15.50;99.90;;;;;;4847479;29;20084;-83
2022/08/30 06:03:31;;;;;;;5.85;2.80;;;15.60;99.90;;;;;;4864035;29;20049;-83
2022/08/30 06:05:58;;;;;;;7.10;2.50;;;15.70;99.90;;;;;;4847589;29;20060;-83
2022/08/30 06:08:33;;;;;;;5.70;2.38;;;15.90;99.90;;;;;;4847643;29;20056;-84
2022/08/30 06:10:58;;;;;;;5.97;3.03;;;16.00;99.90;;;;;;4847628;29;20390;-83
2022/08/30 06:13:24;;;;;;;4.20;2.75;;;16.10;99.90;;;;;;4847276;29;20108;-83
2022/08/30 06:15:51;;;;;;;6.30;2.92;;;16.20;99.90;;;;;;4847480;29;20065;-83
2022/08/30 06:18:17;;;;;;;6.03;2.67;;;16.30;99.90;;;;;;4864069;29;20045;-83
2022/08/30 06:20:46;;;;;;;5.20;2.30;;;16.30;99.90;;;;;;4847411;29;20045;-84
2022/08/30 06:23:13;;;;;;;4.50;2.55;;;16.30;99.90;;;;;;4864231;29;20072;-84
2022/08/30 06:25:39;;;;;;;3.88;2.38;;;16.20;99.90;;;;;;4863966;29;20064;-90
2022/08/30 06:28:05;;;;;;;4.82;2.50;;;16.20;99.90;;;;;;4863582;29;20046;-84
2022/08/30 06:30:32;;;;;;;10.52;2.80;;;16.10;99.90;;;;;;4863867;29;20117;-84
2022/08/30 06:32:58;;;;;;;5.82;2.75;;;16.20;99.90;;;;;;4863731;29;20037;-83
2022/08/30 06:35:25;;;;;;;5.78;2.30;;;16.20;99.90;;;;;;4863712;29;20379;-83
2022/08/30 06:37:51;;;;;;;5.90;3.03;;;16.30;99.90;;;;;;4863005;29;20525;-84
2022/08/30 06:40:19;;;;;;;5.63;2.50;;;16.50;99.90;;;;;;4863396;29;20053;-87
2022/08/30 06:42:45;;;;;;;3.33;2.00;;;16.60;99.90;;;;;;4847072;29;20072;-83
2022/08/30 06:45:10;;;;;;;4.32;1.60;;;16.60;99.90;;;;;;4863235;29;20405;-83
2022/08/30 06:47:36;;;;;;;5.63;1.80;;;16.70;99.90;;;;;;4846756;29;20062;-84
2022/08/30 06:50:02;;;;;;;3.92;1.80;;;16.90;99.90;;;;;;4863419;29;20057;-83
2022/08/30 06:52:28;;;;;;;6.10;2.08;;;17.10;99.90;;;;;;4863199;29;20053;-84
2022/08/30 06:54:55;;;;;;;4.15;1.23;;;17.20;99.90;;;;;;4863102;29;20056;-83
2022/08/30 06:57:20;;;;;;;5.10;1.58;;;17.40;99.90;;;;;;4863382;29;20216;-84
2022/08/30 06:59:46;;;;;;;8.45;1.55;;;17.60;99.90;;;;;;4846552;29;20136;-84
2022/08/30 07:02:12;;;;;;;5.20;1.58;;;17.80;99.90;;;;;;4863359;29;20094;-82
2022/08/30 07:04:37;;;;;;;4.47;1.58;;;17.90;99.90;;;;;;4846655;29;20057;-82
2022/08/30 07:07:03;;;;;;;6.25;1.45;;;18.00;99.90;;;;;;4846606;29;20463;-84
2022/08/30 07:09:29;;;;;;;7.05;1.30;;;18.20;99.90;;;;;;4856734;29;20045;-82
2022/08/30 07:11:55;;;;;;;3.03;1.45;;;18.30;99.90;;;;;;4833031;29;20060;-83
2022/08/30 07:14:21;;;;;;;4.70;1.27;;;18.40;99.90;;;;;;4827735;29;20046;-82
2022/08/30 07:16:46;;;;;;;4.25;1.23;;;18.50;99.90;;;;;;4827788;29;20049;-81
2022/08/30 07:19:12;;;;;;;2.95;1.17;;;18.50;99.90;;;;;;4844143;29;20056;-81
2022/08/30 07:21:43;;;;;;;2.53;0.90;;;18.60;99.90;;;;;;4827675;29;20115;-83
2022/08/30 07:24:10;;;;;;;2.67;1.20;;;18.60;99.90;;;;;;4827571;29;20114;-82
2022/08/30 07:26:40;;;;;;;4.57;1.05;;;18.60;99.90;;;;;;4844183;29;20245;-81
2022/08/30 07:29:07;;;;;;;3.03;1.20;;;18.70;99.90;;;;;;4827630;29;20046;-82
2022/08/30 07:31:34;;;;;;;3.83;1.15;;;18.90;99.90;;;;;;4844157;29;20048;-84
2022/08/30 07:34:01;;;;;;;3.72;1.13;;;18.80;99.90;;;;;;4843738;29;20046;-83
2022/08/30 07:36:27;;;;;;;2.70;0.82;;;18.90;99.90;;;;;;4834272;29;20057;-83
2022/08/30 07:38:53;;;;;;;2.55;0.98;;;19.00;99.90;;;;;;4862415;29;20426;-82
2022/08/30 07:41:28;;;;;;;3.40;0.90;;;19.10;99.90;;;;;;4845548;29;20105;-81
2022/08/30 07:43:55;;;;;;;3.50;1.00;;;19.10;99.90;;;;;;4845897;29;20068;-81
2022/08/30 07:46:21;;;;;;;2.88;1.00;;;19.10;99.90;;;;;;4862015;29;20128;-82
2022/08/30 07:48:47;;;;;;;5.75;1.38;;;19.20;99.90;;;;;;4845458;29;20045;-82
2022/08/30 07:51:16;;;;;;;3.15;1.25;;;19.10;99.90;;;;;;4861483;29;20056;-82
2022/08/30 07:53:42;;;;;;;3.60;0.90;;;19.20;99.90;;;;;;4845230;29;20053;-82
2022/08/30 07:56:08;;;;;;;2.50;1.08;;;19.30;99.90;;;;;;4861911;29;20056;-82
2022/08/30 07:58:36;;;;;;;1.88;0.80;;;19.30;99.90;;;;;;4862015;29;20491;-81
2022/08/30 08:01:05;;;;;;;4.45;0.80;;;19.20;99.90;;;;;;4861993;29;20064;-83
2022/08/30 08:03:30;;;;;;;5.45;1.33;;;19.20;99.90;;;;;;4862058;29;20053;-82
2022/08/30 08:05:56;;;;;;;3.42;0.93;;;19.10;99.90;;;;;;4862006;29;20046;-84
2022/08/30 08:08:23;;;;;;;2.90;1.10;;;19.20;99.90;;;;;;4845133;29;20080;-83
2022/08/30 08:10:48;;;;;;;2.83;1.10;;;19.20;99.90;;;;;;4861801;29;20045;-86
2022/08/30 08:13:14;;;;;;;2.25;0.90;;;19.20;99.90;;;;;;4861757;29;20094;-81
2022/08/30 08:15:40;;;;;;;4.75;0.90;;;19.20;99.90;;;;;;4861739;29;20049;-82
2022/08/30 08:18:06;;;;;;;2.42;1.25;;;19.40;99.90;;;;;;4861593;29;20045;-81
2022/08/30 08:20:32;;;;;;;2.38;1.00;;;19.50;99.90;;;;;;4844966;29;20049;-82
2022/08/30 08:22:58;;;;;;;2.85;1.08;;;19.60;99.90;;;;;;4861572;29;20050;-81
2022/08/30 08:25:23;;;;;;;2.42;1.10;;;19.60;99.90;;;;;;4861694;29;20049;-83
2022/08/30 08:27:50;;;;;;;3.35;1.00;;;19.30;99.90;;;;;;4844821;29;20140;-83
2022/08/30 08:30:20;;;;;;;2.92;1.02;;;19.20;99.90;;;;;;4861599;29;20145;-84
2022/08/30 08:32:47;;;;;;;4.15;0.98;;;19.50;99.90;;;;;;4861055;29;20045;-82
2022/08/30 08:35:14;;;;;;;3.08;1.02;;;19.70;99.90;;;;;;4860659;29;20049;-85
2022/08/30 08:37:40;;;;;;;3.35;0.82;;;19.70;99.90;;;;;;4844596;29;20096;-82
2022/08/30 08:40:07;;;;;;;2.65;1.10;;;19.80;99.90;;;;;;4861224;29;20128;-83
2022/08/30 08:43:00;;;;;;;3.83;1.20;;;19.80;99.90;;;;;;4844606;29;20405;-82
2022/08/30 08:45:39;;;;;;;2.67;1.05;;;19.80;99.90;;;;;;4844336;29;20556;-80
2022/08/30 08:48:25;;;;;;;3.05;0.88;;;19.70;99.90;;;;;;4860748;29;20049;-81
2022/08/30 08:53:35;;;;;;;3.53;1.13;;;20.20;99.90;;;;;;4844370;29;20061;-80
2022/08/30 08:56:11;;;;;;;2.97;0.93;;;20.30;99.90;;;;;;4844778;29;20057;-81
2022/08/30 08:58:50;;;;;;;3.88;1.08;;;20.30;99.90;;;;;;4860980;29;20398;-80
2022/08/30 09:01:19;;;;;;;3.60;1.13;;;20.10;99.90;;;;;;4853299;29;20049;-82
2022/08/30 09:03:46;;;;;;;3.05;0.90;;;20.00;99.90;;;;;;4844472;29;20091;-81
2022/08/30 09:06:31;;;;;;;2.72;1.00;;;20.10;99.90;;;;;;4861113;29;20100;-81
2022/08/30 09:08:57;;;;;;;2.90;1.00;;;20.30;99.90;;;;;;4840642;29;20053;-80
2022/08/30 09:11:26;;;;;;;2.95;0.80;;;20.40;99.90;;;;;;4844626;29;20109;-81
2022/08/30 09:13:53;;;;;;;2.13;0.95;;;20.50;99.90;;;;;;4844251;29;20413;-80
2022/08/30 09:16:47;;;;;;;2.45;0.90;;;20.60;99.90;;;;;;4861117;29;20125;-80
2022/08/30 09:19:41;;;;;;;3.00;1.10;;;20.50;99.90;;;;;;4860981;29;20073;-81
2022/08/30 09:22:16;;;;;;;4.72;1.00;;;20.40;99.90;;;;;;4860733;29;20136;-80
2022/08/30 09:24:45;;;;;;;2.50;0.85;;;20.60;99.90;;;;;;4860565;29;20058;-81
2022/08/30 09:27:29;;;;;;;2.92;0.88;;;20.40;99.90;;;;;;4844046;29;20056;-83
2022/08/30 09:30:17;;;;;;;3.92;0.88;;;20.40;99.90;;;;;;4852194;29;20042;-81
2022/08/30 09:32:56;;;;;;;3.83;0.80;;;20.40;99.90;;;;;;4859163;29;20635;-82
2022/08/30 09:35:34;;;;;;;3.88;1.00;;;20.40;99.90;;;;;;4860402;29;20090;-82
2022/08/30 09:38:19;;;;;;;2.38;1.00;;;20.40;99.90;;;;;;4859972;29;20050;-85
2022/08/30 09:40:49;;;;;;;3.10;1.00;;;20.40;99.90;;;;;;4842729;29;20125;-83
2022/08/30 09:43:15;;;;;;;2.42;0.90;;;20.60;99.90;;;;;;4853322;29;20053;-83
2022/08/30 09:46:04;;;;;;;4.47;0.70;;;20.60;99.90;;;;;;4860479;29;20057;-83
2022/08/30 09:48:32;;;;;;;2.33;0.80;;;20.90;99.90;;;;;;4832517;29;20405;-83
2022/08/30 09:51:07;;;;;;;3.53;0.95;;;20.90;99.90;;;;;;4860534;29;20539;-90
2022/08/30 09:53:51;;;;;;;2.88;0.77;;;20.70;99.90;;;;;;4860577;29;20045;-84
2022/08/30 09:56:51;;;;;;;3.85;0.98;;;20.70;99.90;;;;;;4833695;29;20421;-83
2022/08/30 09:59:45;;;;;;;2.75;0.65;;;20.50;99.90;;;;;;4853331;29;20549;-87
2022/08/30 10:02:16;;;;;;;2.50;0.85;;;20.80;99.90;;;;;;4849105;29;20057;-90
2022/08/30 10:05:05;;;;;;;1.40;0.50;;;20.70;99.90;;;;;;4847272;29;20045;-95
2022/08/30 10:07:52;;;;;;;3.33;0.90;;;20.70;99.90;;;;;;4847579;29;20053;-96
2022/08/30 10:10:51;;;;;;;4.35;0.80;;;21.00;99.90;;;;;;4834176;29;20144;-89
2022/08/30 10:13:40;;;;;;;2.75;0.60;;;21.30;99.90;;;;;;4841721;29;20494;-84
2022/08/30 10:16:14;;;;;;;1.90;0.65;;;21.20;99.90;;;;;;4846128;29;20414;-84
2022/08/30 10:18:53;;;;;;;4.55;0.70;;;21.40;99.90;;;;;;4864291;29;20053;-85
2022/08/30 10:21:37;;;;;;;5.45;0.77;;;21.40;99.90;;;;;;4847805;29;20494;-88
2022/08/30 10:24:12;;;;;;;1.98;0.70;;;21.20;99.90;;;;;;4847374;29;20058;-83
2022/08/30 10:27:00;;;;;;;1.83;0.65;;;21.20;99.90;;;;;;4863512;29;20053;-81
2022/08/30 10:29:39;;;;;;;3.85;0.80;;;21.30;99.90;;;;;;4863493;29;20134;-80
2022/08/30 10:32:09;;;;;;;2.75;0.70;;;21.30;99.90;;;;;;4846820;29;20037;-81
2022/08/30 10:34:39;;;;;;;2.13;0.90;;;21.40;99.90;;;;;;4863391;29;20125;-81
2022/08/30 10:37:28;;;;;;;3.55;0.80;;;21.60;99.90;;;;;;4863382;29;20052;-81
2022/08/30 10:42:52;;;;;;;2.50;1.00;;;21.70;99.90;;;;;;4863308;29;20053;-81
2022/08/30 10:45:20;;;;;;;5.53;1.10;;;21.60;99.90;;;;;;4863188;29;20050;-85
2022/08/30 10:48:25;;;;;;;2.95;0.80;;;21.80;99.90;;;;;;4846409;29;20136;-82
2022/08/30 10:50:55;;;;;;;2.63;0.60;;;22.00;99.90;;;;;;4845872;29;20109;-85
2022/08/30 10:53:45;;;;;;;3.58;0.70;;;22.20;99.90;;;;;;4863034;29;20063;-82
2022/08/30 10:56:20;;;;;;;2.08;0.80;;;22.10;99.90;;;;;;4863003;29;20056;-82
2022/08/30 10:58:47;;;;;;;2.13;0.77;;;22.00;99.90;;;;;;4862949;29;20059;-84
2022/08/30 11:01:40;;;;;;;4.20;0.75;;;22.00;99.90;;;;;;4863142;29;20093;-80
2022/08/30 11:04:33;;;;;;;2.22;0.88;;;21.80;99.90;;;;;;4862933;29;20047;-80
2022/08/30 11:07:01;;;;;;;1.77;0.70;;;22.00;99.90;;;;;;4862858;29;20058;-80
2022/08/30 11:09:52;;;;;;;2.10;0.70;;;21.90;99.90;;;;;;4862644;29;20061;-82
2022/08/30 11:12:49;;;;;;;2.20;0.50;;;22.20;99.90;;;;;;4863010;29;20043;-84
2022/08/30 11:15:18;;;;;;;3.17;0.80;;;22.50;99.90;;;;;;4835570;29;20053;-82
2022/08/30 11:18:08;;;;;;;2.92;0.80;;;22.10;99.90;;;;;;4859063;29;20094;-82
2022/08/30 11:20:44;;;;;;;2.05;0.75;;;21.70;99.90;;;;;;4862844;29;20136;-89
2022/08/30 11:23:27;;;;;;;2.03;0.70;;;21.70;99.90;;;;;;4862312;29;20068;-85
2022/08/30 11:26:00;;;;;;;2.78;0.60;;;21.90;99.90;;;;;;4862818;29;20054;-85
2022/08/30 11:28:35;;;;;;;5.07;1.10;;;22.10;99.90;;;;;;4862698;29;20045;-82
2022/08/30 11:31:07;;;;;;;3.30;0.93;;;22.30;99.90;;;;;;4862700;29;20607;-82
2022/08/30 11:33:55;;;;;;;1.63;0.55;;;22.40;99.90;;;;;;4862209;29;20046;-82
2022/08/30 11:36:27;;;;;;;2.72;0.70;;;22.20;99.90;;;;;;4862363;29;20062;-82
2022/08/30 11:38:52;;;;;;;2.60;0.77;;;22.10;99.90;;;;;;4862195;29;20401;-83
2022/08/30 11:41:46;;;;;;;1.80;0.85;;;22.10;99.90;;;;;;4845944;29;20053;-83
2022/08/30 11:44:21;;;;;;;1.83;0.60;;;22.20;99.90;;;;;;4843601;29;20387;-82
2022/08/30 11:46:48;;;;;;;1.73;0.65;;;22.20;99.90;;;;;;4845492;29;20109;-82
2022/08/30 11:49:17;;;;;;;3.70;1.00;;;22.20;99.90;;;;;;4845490;29;20054;-84
2022/08/30 11:51:48;;;;;;;4.32;0.65;;;22.40;99.90;;;;;;4845760;29;20049;-83
2022/08/30 11:54:40;;;;;;;4.47;0.80;;;22.70;99.90;;;;;;4862106;29;20050;-83
2022/08/30 11:57:41;;;;;;;4.00;0.73;;;22.60;99.90;;;;;;4862016;29;20069;-83
2022/08/30 12:00:24;;;;;;;6.68;1.65;;;22.50;99.90;;;;;;4840253;29;20493;-82
2022/08/30 12:02:57;;;;;;;3.15;0.70;;;22.60;99.90;;;;;;4845294;29;20045;-84
2022/08/30 12:05:38;;;;;;;3.58;0.85;;;22.60;99.90;;;;;;4845198;29;20109;-85
2022/08/30 12:08:19;;;;;;;2.85;0.85;;;22.70;99.90;;;;;;4861849;29;20050;-84
2022/08/30 12:10:53;;;;;;;3.75;0.60;;;22.80;99.90;;;;;;4861915;29;20053;-82
2022/08/30 12:13:34;;;;;;;3.33;1.13;;;22.60;99.90;;;;;;4861567;29;20512;-83
2022/08/30 12:16:08;;;;;;;2.50;1.02;;;22.70;99.90;;;;;;4861600;29;20076;-83
2022/08/30 12:18:50;;;;;;;3.20;0.95;;;22.80;99.90;;;;;;4861908;29;20057;-84
2022/08/30 12:21:19;;;;;;;2.53;0.55;;;23.10;99.90;;;;;;4854114;29;20517;-82
2022/08/30 12:24:03;;;;;;;2.40;0.70;;;22.80;99.90;;;;;;4861494;29;20053;-84
2022/08/30 12:26:35;;;;;;;2.85;0.98;;;23.00;99.90;;;;;;4861705;29;20053;-81
2022/08/30 12:29:23;;;;;;;2.50;0.93;;;23.10;99.90;;;;;;4861443;29;20371;-90
2022/08/30 12:31:55;;;;;;;2.42;0.80;;;22.50;99.90;;;;;;4861314;29;20042;-87
2022/08/30 12:34:46;;;;;;;4.00;0.80;;;22.50;99.90;;;;;;4844800;29;20054;-86
2022/08/30 12:37:26;;;;;;;3.28;0.85;;;22.70;99.90;;;;;;4844335;29;20065;-89
2022/08/30 12:40:07;;;;;;;2.35;0.73;;;22.80;99.90;;;;;;4861262;29;20052;-84
2022/08/30 12:42:57;;;;;;;2.47;1.00;;;22.50;99.90;;;;;;4861491;29;20154;-89
2022/08/30 12:45:30;;;;;;;2.35;0.70;;;22.60;99.90;;;;;;4835468;29;20053;-81
2022/08/30 12:48:04;;;;;;;2.60;0.85;;;22.90;99.90;;;;;;4842339;29;20057;-84
2022/08/30 12:50:42;;;;;;;2.10;0.82;;;22.60;99.90;;;;;;4844842;29;20080;-89
2022/08/30 12:53:10;;;;;;;3.60;0.80;;;22.80;99.90;;;;;;4861016;29;20497;-86
2022/08/30 12:55:53;;;;;;;4.15;0.70;;;22.30;99.90;;;;;;4861132;29;20056;-84
2022/08/30 12:58:32;;;;;;;;;;;22.60;99.90;;;;;;4834947;29;20081;-89
2022/08/30 13:01:25;;;;;;;1.83;0.68;;;22.60;99.90;;;;;;4873409;29;19939;-86
2022/08/30 13:04:02;;;;;;;2.80;0.77;;;22.60;99.90;;;;;;4844998;29;20105;-87
2022/08/30 13:06:44;;;;;;;2.00;0.90;;;22.90;99.90;;;;;;4861372;29;20057;-85
2022/08/30 13:09:34;;;;;;;1.90;0.67;;;22.90;99.90;;;;;;4844578;29;20540;-88
2022/08/30 13:12:02;;;;;;;2.88;0.90;;;23.00;99.90;;;;;;4844509;29;20501;-86
2022/08/30 13:14:38;;;;;;;3.30;0.80;;;22.80;99.90;;;;;;4861093;29;20054;-86